createdAt,value
2018-12-31T00:01:13.238Z,1.80
2018-12-31T00:03:41.402Z,1.17
2018-12-31T00:06:11.192Z,1.23
2018-12-31T00:08:39.300Z,1.10
2018-12-31T00:11:07.844Z,1.53
2018-12-31T00:13:36.331Z,1.00
2018-12-31T00:16:22.282Z,1.30
2018-12-31T00:18:50.378Z,1.37
2018-12-31T00:21:18.529Z,1.63
2018-12-31T00:23:58.292Z,1.37
2018-12-31T00:26:30.043Z,1.53
2018-12-31T00:29:14.034Z,1.37
2018-12-31T00:31:43.009Z,1.40
2018-12-31T00:34:29.422Z,1.40
2018-12-31T00:37:07.957Z,1.90
2018-12-31T00:39:36.046Z,1.20
2018-12-31T00:42:04.180Z,1.20
2018-12-31T00:44:32.330Z,1.17
2018-12-31T00:47:00.458Z,1.70
2018-12-31T00:49:28.541Z,1.80
2018-12-31T00:51:56.702Z,1.50
2018-12-31T00:54:24.797Z,1.60
2018-12-31T00:56:52.945Z,1.50
2018-12-31T00:59:21.104Z,1.90
2018-12-31T01:01:49.236Z,1.40
2018-12-31T01:04:17.353Z,1.50
2018-12-31T01:06:45.509Z,1.30
2018-12-31T01:09:13.684Z,1.10
2018-12-31T01:11:41.844Z,1.57
2018-12-31T01:14:10.066Z,1.27
2018-12-31T01:16:38.200Z,1.40
2018-12-31T01:19:06.295Z,1.40
2018-12-31T01:21:34.446Z,1.50
2018-12-31T01:24:02.555Z,1.23
2018-12-31T01:26:30.685Z,1.37
2018-12-31T01:28:58.781Z,0.97
2018-12-31T01:31:26.924Z,1.20
2018-12-31T01:33:55.169Z,1.20
2018-12-31T01:36:28.029Z,1.10
2018-12-31T01:38:56.123Z,1.20
2018-12-31T01:41:24.285Z,1.47
2018-12-31T01:43:52.434Z,1.47
2018-12-31T01:46:21.082Z,1.40
2018-12-31T01:48:49.208Z,1.00
2018-12-31T01:51:17.329Z,1.50
2018-12-31T01:53:45.469Z,1.07
2018-12-31T01:56:13.616Z,1.20
2018-12-31T01:58:41.757Z,1.30
2018-12-31T02:01:09.844Z,1.47
2018-12-31T02:03:37.973Z,1.00
2018-12-31T02:06:06.091Z,1.40
2018-12-31T02:08:34.224Z,1.70
2018-12-31T02:11:02.664Z,1.37
2018-12-31T02:13:32.049Z,1.70
2018-12-31T02:16:00.263Z,1.60
2018-12-31T02:18:28.390Z,1.83
2018-12-31T02:21:03.777Z,2.03
2018-12-31T02:23:32.130Z,1.07
2018-12-31T02:26:04.780Z,1.77
2018-12-31T02:28:32.933Z,1.30
2018-12-31T02:31:01.753Z,1.80
2018-12-31T02:33:29.909Z,2.43
2018-12-31T02:35:58.000Z,1.60
2018-12-31T02:38:26.244Z,1.50
2018-12-31T02:40:54.349Z,1.70
2018-12-31T02:43:22.849Z,1.30
2018-12-31T02:45:50.981Z,1.53
2018-12-31T02:48:19.127Z,1.90
2018-12-31T02:50:47.213Z,1.37
2018-12-31T02:53:15.371Z,1.40
2018-12-31T02:55:43.835Z,2.03
2018-12-31T02:58:12.081Z,1.90
2018-12-31T03:00:40.152Z,2.47
2018-12-31T03:03:08.316Z,1.60
2018-12-31T03:05:36.934Z,1.33
2018-12-31T03:08:05.099Z,1.57
2018-12-31T03:10:33.180Z,1.60
2018-12-31T03:13:01.309Z,1.53
2018-12-31T03:15:29.497Z,1.63
2018-12-31T03:17:57.622Z,1.60
2018-12-31T03:20:25.709Z,1.77
2018-12-31T03:22:53.859Z,1.70
2018-12-31T03:25:21.937Z,2.10
2018-12-31T03:27:50.064Z,1.80
2018-12-31T03:30:18.270Z,1.27
2018-12-31T03:32:46.439Z,1.63
2018-12-31T03:35:14.540Z,1.50
2018-12-31T03:37:42.688Z,1.57
2018-12-31T03:40:11.365Z,1.70
2018-12-31T03:42:39.699Z,1.70
2018-12-31T03:45:08.115Z,1.60
2018-12-31T03:47:36.272Z,1.90
2018-12-31T03:50:05.206Z,1.83
2018-12-31T03:52:33.441Z,1.67
2018-12-31T03:55:01.896Z,1.63
2018-12-31T03:57:30.053Z,1.70
2018-12-31T03:59:58.142Z,1.57
2018-12-31T04:02:26.394Z,1.67
2018-12-31T04:04:54.570Z,1.37
2018-12-31T04:07:23.137Z,1.70
2018-12-31T04:09:51.251Z,2.03
2018-12-31T04:12:19.370Z,1.60
2018-12-31T04:14:47.467Z,1.80
2018-12-31T04:17:15.623Z,1.83
2018-12-31T04:19:44.149Z,1.93
2018-12-31T04:22:12.249Z,2.20
2018-12-31T04:24:59.770Z,1.83
2018-12-31T04:27:32.130Z,1.80
2018-12-31T04:30:00.263Z,2.00
2018-12-31T04:32:28.892Z,1.97
2018-12-31T04:34:57.029Z,1.90
2018-12-31T04:37:25.152Z,2.17
2018-12-31T04:39:53.229Z,1.80
2018-12-31T04:42:21.448Z,1.77
2018-12-31T04:44:49.574Z,2.00
2018-12-31T04:47:17.752Z,2.50
2018-12-31T04:49:45.911Z,2.50
2018-12-31T04:52:14.019Z,2.10
2018-12-31T04:54:42.213Z,2.50
2018-12-31T04:57:10.315Z,2.00
2018-12-31T04:59:38.463Z,2.20
2018-12-31T05:02:06.560Z,3.03
2018-12-31T05:04:34.690Z,1.67
2018-12-31T05:07:02.788Z,1.80
2018-12-31T05:09:30.954Z,1.70
2018-12-31T05:11:59.045Z,2.43
2018-12-31T05:14:27.217Z,2.00
2018-12-31T05:16:55.305Z,2.20
2018-12-31T05:19:23.478Z,1.97
2018-12-31T05:22:12.500Z,1.80
2018-12-31T05:24:40.644Z,1.97
2018-12-31T05:27:09.194Z,1.53
2018-12-31T05:29:37.806Z,1.50
2018-12-31T05:32:05.889Z,1.80
2018-12-31T05:34:34.040Z,1.90
2018-12-31T05:37:02.185Z,2.00
2018-12-31T05:39:30.346Z,1.93
2018-12-31T05:41:58.450Z,2.40
2018-12-31T05:44:26.618Z,1.87
2018-12-31T05:46:54.756Z,2.00
2018-12-31T05:49:23.313Z,1.90
2018-12-31T05:51:51.985Z,2.10
2018-12-31T05:54:20.196Z,1.87
2018-12-31T05:56:48.300Z,2.10
2018-12-31T05:59:16.407Z,2.07
2018-12-31T06:01:44.877Z,1.57
2018-12-31T06:04:12.996Z,2.30
2018-12-31T06:06:41.161Z,2.20
2018-12-31T06:09:09.365Z,2.20
2018-12-31T06:11:37.502Z,2.33
2018-12-31T06:14:05.569Z,2.40
2018-12-31T06:16:33.686Z,2.27
2018-12-31T06:19:01.769Z,1.80
2018-12-31T06:21:29.897Z,2.43
2018-12-31T06:23:58.076Z,2.30
2018-12-31T06:26:26.209Z,2.00
2018-12-31T06:28:54.278Z,2.83
2018-12-31T06:31:22.456Z,2.50
2018-12-31T06:33:50.533Z,2.63
2018-12-31T06:36:18.667Z,2.37
2018-12-31T06:38:46.741Z,2.77
2018-12-31T06:41:14.857Z,2.83
2018-12-31T06:43:42.923Z,2.43
2018-12-31T06:46:11.094Z,2.30
2018-12-31T06:48:39.152Z,2.23
2018-12-31T06:51:07.281Z,1.80
2018-12-31T06:53:35.340Z,1.93
2018-12-31T06:56:03.459Z,2.07
2018-12-31T06:58:31.518Z,2.20
2018-12-31T07:00:59.641Z,2.07
2018-12-31T07:03:27.708Z,1.87
2018-12-31T07:05:55.844Z,2.10
2018-12-31T07:08:23.927Z,2.57
2018-12-31T07:10:51.995Z,2.53
2018-12-31T07:13:20.116Z,2.60
2018-12-31T07:15:48.744Z,2.23
2018-12-31T07:18:16.825Z,2.47
2018-12-31T07:20:44.950Z,2.53
2018-12-31T07:23:13.021Z,2.90
2018-12-31T07:25:41.104Z,2.50
2018-12-31T07:28:09.354Z,2.93
2018-12-31T07:30:37.417Z,3.80
2018-12-31T07:33:05.529Z,4.00
2018-12-31T07:35:33.611Z,3.23
2018-12-31T07:38:01.720Z,3.30
2018-12-31T07:40:30.177Z,3.77
2018-12-31T07:42:58.304Z,3.37
2018-12-31T07:45:26.425Z,3.70
2018-12-31T07:47:54.597Z,3.30
2018-12-31T07:50:22.673Z,3.23
2018-12-31T07:52:50.785Z,3.30
2018-12-31T07:55:18.850Z,2.90
2018-12-31T07:57:46.978Z,3.07
2018-12-31T08:00:15.045Z,3.43
2018-12-31T08:02:43.164Z,4.77
2018-12-31T08:05:11.336Z,3.07
2018-12-31T08:07:39.458Z,3.47
2018-12-31T08:10:07.573Z,1.93
2018-12-31T08:12:35.687Z,2.27
2018-12-31T08:15:04.221Z,2.37
2018-12-31T08:17:32.354Z,2.53
2018-12-31T08:20:00.472Z,2.20
2018-12-31T08:22:28.689Z,2.70
2018-12-31T08:24:56.784Z,2.80
2018-12-31T08:27:25.009Z,2.50
2018-12-31T08:29:53.086Z,3.40
2018-12-31T08:32:21.197Z,5.40
2018-12-31T08:34:49.268Z,7.53
2018-12-31T08:37:17.402Z,7.57
2018-12-31T08:39:45.465Z,6.23
2018-12-31T08:42:13.593Z,4.03
2018-12-31T08:44:41.661Z,11.37
2018-12-31T08:47:09.834Z,15.30
2018-12-31T08:49:37.905Z,16.73
2018-12-31T08:52:06.025Z,18.20
2018-12-31T08:54:34.084Z,11.00
2018-12-31T08:57:02.196Z,11.13
2018-12-31T08:59:30.268Z,8.03
2018-12-31T09:01:58.391Z,4.50
2018-12-31T09:04:26.905Z,4.87
2018-12-31T09:06:55.028Z,5.63
2018-12-31T09:09:23.345Z,5.97
2018-12-31T09:11:51.468Z,5.90
2018-12-31T09:14:19.597Z,7.23
2018-12-31T09:16:47.713Z,8.50
2018-12-31T09:19:15.793Z,8.27
2018-12-31T09:21:44.365Z,7.80
2018-12-31T09:24:12.450Z,7.43
2018-12-31T09:26:40.576Z,6.33
2018-12-31T09:29:08.640Z,8.10
2018-12-31T09:31:37.425Z,9.57
2018-12-31T09:34:06.560Z,7.80
2018-12-31T09:36:36.560Z,8.00
2018-12-31T09:39:07.531Z,8.50
2018-12-31T09:41:35.852Z,9.47
2018-12-31T09:44:04.177Z,9.17
2018-12-31T09:46:32.514Z,13.40
2018-12-31T09:49:00.611Z,16.77
2018-12-31T09:51:28.833Z,23.80
2018-12-31T09:53:57.062Z,22.70
2018-12-31T09:56:25.383Z,24.67
2018-12-31T09:58:53.909Z,24.73
2018-12-31T10:01:22.731Z,26.57
2018-12-31T10:03:51.027Z,29.30
2018-12-31T10:06:19.093Z,30.40
2018-12-31T10:08:49.433Z,27.73
2018-12-31T10:11:17.294Z,27.10
2018-12-31T10:13:45.492Z,22.10
2018-12-31T10:16:13.717Z,20.17
2018-12-31T10:18:41.957Z,20.90
2018-12-31T10:21:10.026Z,21.13
2018-12-31T10:23:38.213Z,14.83
2018-12-31T10:26:06.409Z,8.70
2018-12-31T10:28:34.632Z,7.40
2018-12-31T10:31:02.705Z,6.30
2018-12-31T10:33:30.917Z,5.60
2018-12-31T10:35:58.980Z,5.30
2018-12-31T10:38:27.104Z,4.67
2018-12-31T10:40:55.277Z,4.47
2018-12-31T10:43:23.393Z,4.13
2018-12-31T10:45:51.827Z,3.77
2018-12-31T10:48:20.239Z,4.10
2018-12-31T10:50:48.357Z,3.20
2018-12-31T10:53:16.481Z,2.60
2018-12-31T10:55:44.708Z,2.37
2018-12-31T10:58:12.992Z,2.83
2018-12-31T11:00:42.845Z,3.10
2018-12-31T11:03:11.010Z,3.93
2018-12-31T11:05:39.180Z,3.63
2018-12-31T11:08:07.393Z,3.63
2018-12-31T11:10:36.173Z,3.97
2018-12-31T11:13:04.833Z,5.23
2018-12-31T11:15:33.148Z,5.10
2018-12-31T11:18:08.552Z,6.10
2018-12-31T11:20:39.298Z,5.30
2018-12-31T11:23:11.725Z,5.43
2018-12-31T11:25:41.219Z,3.90
2018-12-31T11:28:09.464Z,3.87
2018-12-31T11:30:38.028Z,3.63
2018-12-31T11:33:06.971Z,3.97
2018-12-31T11:35:37.469Z,3.37
2018-12-31T11:38:05.848Z,2.80
2018-12-31T11:40:34.111Z,2.27
2018-12-31T11:43:02.249Z,2.60
2018-12-31T11:45:32.537Z,2.73
2018-12-31T11:48:07.801Z,2.70
2018-12-31T11:50:38.525Z,2.77
2018-12-31T11:53:06.741Z,2.70
2018-12-31T11:55:34.932Z,3.40
2018-12-31T11:58:04.837Z,3.00
2018-12-31T12:00:35.332Z,3.33
2018-12-31T12:03:04.665Z,3.97
2018-12-31T12:05:34.275Z,4.17
2018-12-31T12:08:02.497Z,3.80
2018-12-31T12:10:30.653Z,3.93
2018-12-31T12:12:58.931Z,4.60
2018-12-31T12:15:27.221Z,4.90
2018-12-31T12:17:55.350Z,4.70
2018-12-31T12:20:23.590Z,4.20
2018-12-31T12:22:51.712Z,4.70
2018-12-31T12:25:27.399Z,4.23
2018-12-31T12:27:55.536Z,4.87
2018-12-31T12:30:25.838Z,4.53
2018-12-31T12:32:54.009Z,4.50
2018-12-31T12:35:22.081Z,4.13
2018-12-31T12:37:50.205Z,3.83
2018-12-31T12:40:18.293Z,3.20
2018-12-31T12:42:48.246Z,4.27
2018-12-31T12:45:16.405Z,4.43
2018-12-31T12:47:45.118Z,3.83
2018-12-31T12:50:16.229Z,4.57
2018-12-31T12:52:44.532Z,3.57
2018-12-31T12:55:13.336Z,3.47
2018-12-31T12:57:41.457Z,2.90
2018-12-31T13:00:12.478Z,2.97
2018-12-31T13:02:40.613Z,2.83
2018-12-31T13:05:08.699Z,2.80
2018-12-31T13:07:38.567Z,2.80
2018-12-31T13:10:06.976Z,2.87
2018-12-31T13:12:35.154Z,3.93
2018-12-31T13:15:03.490Z,3.70
2018-12-31T13:17:31.581Z,3.70
2018-12-31T13:20:00.284Z,4.00
2018-12-31T13:22:30.417Z,4.50
2018-12-31T13:24:59.097Z,3.60
2018-12-31T13:27:28.561Z,4.03
2018-12-31T13:29:56.694Z,3.30
2018-12-31T13:32:25.381Z,2.67
2018-12-31T13:34:59.720Z,2.60
2018-12-31T13:37:27.893Z,2.43
2018-12-31T13:40:01.550Z,3.03
2018-12-31T13:42:37.957Z,3.30
2018-12-31T13:45:06.319Z,3.23
2018-12-31T13:47:34.688Z,3.63
2018-12-31T13:50:04.058Z,4.23
2018-12-31T13:52:32.217Z,3.10
2018-12-31T13:55:00.765Z,2.80
2018-12-31T13:57:28.841Z,3.30
2018-12-31T13:59:57.001Z,3.07
2018-12-31T14:02:25.186Z,3.20
2018-12-31T14:04:53.335Z,2.83
2018-12-31T14:07:22.136Z,2.23
2018-12-31T14:09:50.277Z,2.17
2018-12-31T14:12:18.517Z,2.03
2018-12-31T14:14:46.713Z,2.60
2018-12-31T14:17:14.842Z,2.73
2018-12-31T14:19:42.955Z,3.00
2018-12-31T14:22:11.025Z,4.57
2018-12-31T14:24:39.144Z,4.57
2018-12-31T14:27:08.430Z,4.17
2018-12-31T14:29:42.080Z,5.43
2018-12-31T14:32:11.062Z,6.07
2018-12-31T14:34:39.291Z,5.47
2018-12-31T14:37:07.413Z,4.00
2018-12-31T14:39:35.757Z,2.67
2018-12-31T14:42:04.000Z,2.53
2018-12-31T14:44:32.249Z,2.20
2018-12-31T14:47:00.501Z,1.80
2018-12-31T14:49:30.472Z,4.03
2018-12-31T14:51:58.608Z,2.50
2018-12-31T14:54:26.935Z,13.70
2018-12-31T14:56:55.112Z,3.33
2018-12-31T14:59:23.541Z,3.27
2018-12-31T15:01:51.820Z,3.40
2018-12-31T15:04:20.128Z,2.73
2018-12-31T15:06:48.202Z,3.07
2018-12-31T15:09:16.462Z,3.17
2018-12-31T15:11:45.130Z,4.10
2018-12-31T15:14:13.269Z,13.00
2018-12-31T15:16:41.588Z,14.97
2018-12-31T15:19:09.765Z,10.00
2018-12-31T15:21:38.386Z,12.00
2018-12-31T15:24:07.108Z,9.23
2018-12-31T15:26:35.870Z,8.23
2018-12-31T15:29:04.178Z,7.63
2018-12-31T15:31:32.405Z,3.20
2018-12-31T15:34:00.674Z,2.97
2018-12-31T15:36:28.733Z,2.10
2018-12-31T15:38:58.469Z,2.57
2018-12-31T15:41:26.871Z,3.17
2018-12-31T15:43:55.811Z,2.57
2018-12-31T15:46:24.153Z,4.70
2018-12-31T15:48:52.299Z,8.50
2018-12-31T15:51:20.564Z,23.20
2018-12-31T15:53:49.131Z,19.40
2018-12-31T15:56:17.329Z,10.97
2018-12-31T15:58:45.484Z,24.13
2018-12-31T16:01:15.545Z,11.50
2018-12-31T16:03:44.123Z,8.90
2018-12-31T16:06:12.253Z,10.63
2018-12-31T16:08:40.369Z,13.33
2018-12-31T16:11:08.545Z,6.63
2018-12-31T16:13:36.716Z,6.97
2018-12-31T16:16:05.967Z,9.03
2018-12-31T16:18:34.070Z,7.80
2018-12-31T16:21:02.993Z,13.67
2018-12-31T16:23:31.242Z,22.13
2018-12-31T16:25:59.414Z,8.13
2018-12-31T16:28:27.582Z,5.03
2018-12-31T16:30:55.780Z,4.60
2018-12-31T16:33:23.866Z,3.17
2018-12-31T16:35:51.982Z,4.53
2018-12-31T16:38:20.118Z,9.53
2018-12-31T16:40:48.256Z,10.17
2018-12-31T16:43:17.020Z,6.67
2018-12-31T16:45:45.114Z,8.63
2018-12-31T16:48:13.725Z,6.03
2018-12-31T16:50:41.905Z,3.93
2018-12-31T16:53:10.032Z,4.87
2018-12-31T16:55:38.536Z,5.40
2018-12-31T16:58:06.681Z,6.03
2018-12-31T17:00:34.758Z,5.30
2018-12-31T17:03:02.916Z,5.77
2018-12-31T17:05:31.036Z,6.93
2018-12-31T17:07:59.656Z,5.50
2018-12-31T17:10:31.154Z,11.17
2018-12-31T17:13:02.319Z,16.10
2018-12-31T17:15:30.381Z,18.93
2018-12-31T17:17:58.642Z,7.20
2018-12-31T17:20:26.901Z,9.03
2018-12-31T17:22:55.061Z,14.37
2018-12-31T17:25:23.331Z,9.57
2018-12-31T17:27:51.539Z,6.97
2018-12-31T17:30:19.730Z,6.60
2018-12-31T17:32:48.021Z,5.83
2018-12-31T17:35:16.657Z,6.50
2018-12-31T17:37:44.837Z,11.80
2018-12-31T17:40:12.921Z,11.33
2018-12-31T17:42:42.672Z,9.67
2018-12-31T17:45:11.029Z,7.00
2018-12-31T17:47:39.154Z,6.80
2018-12-31T17:50:07.561Z,5.17
2018-12-31T17:52:35.749Z,4.33
2018-12-31T17:55:04.043Z,5.30
2018-12-31T17:57:32.616Z,4.10
2018-12-31T18:00:00.692Z,14.13
2018-12-31T18:02:28.828Z,11.23
2018-12-31T18:04:57.006Z,19.00
2018-12-31T18:07:25.129Z,13.63
2018-12-31T18:09:53.209Z,11.40
2018-12-31T18:12:25.850Z,12.00
2018-12-31T18:14:54.353Z,12.90
2018-12-31T18:17:22.497Z,9.40
2018-12-31T18:19:50.675Z,8.73
2018-12-31T18:22:18.820Z,5.93
2018-12-31T18:24:46.940Z,3.80
2018-12-31T18:27:15.467Z,3.27
2018-12-31T18:29:43.542Z,1.83
2018-12-31T18:32:11.674Z,1.50
2018-12-31T18:34:40.138Z,1.43
2018-12-31T18:37:08.369Z,1.57
2018-12-31T18:39:36.455Z,1.73
2018-12-31T18:42:04.594Z,1.77
2018-12-31T18:44:32.678Z,2.10
2018-12-31T18:47:00.929Z,2.33
2018-12-31T18:49:31.201Z,2.77
2018-12-31T18:52:04.281Z,2.20
2018-12-31T18:54:32.359Z,2.37
2018-12-31T18:57:00.865Z,4.13
2018-12-31T18:59:32.587Z,4.47
2018-12-31T19:02:00.810Z,2.63
2018-12-31T19:04:28.883Z,3.93
2018-12-31T19:07:01.353Z,3.93
2018-12-31T19:09:29.452Z,3.30
2018-12-31T19:11:57.602Z,2.67
2018-12-31T19:14:25.681Z,2.80
2018-12-31T19:16:54.267Z,2.50
2018-12-31T19:19:22.931Z,3.37
2018-12-31T19:21:51.068Z,2.57
2018-12-31T19:24:19.168Z,2.70
2018-12-31T19:26:47.330Z,1.90
2018-12-31T19:29:16.002Z,1.90
2018-12-31T19:31:44.490Z,1.70
2018-12-31T19:34:13.029Z,1.70
2018-12-31T19:36:41.125Z,1.70
2018-12-31T19:39:09.671Z,1.33
2018-12-31T19:41:37.765Z,3.37
2018-12-31T19:44:05.929Z,43.37
2018-12-31T19:46:34.001Z,3.80
2018-12-31T19:49:02.156Z,4.97
2018-12-31T19:51:30.298Z,3.20
2018-12-31T19:53:58.435Z,2.80
2018-12-31T19:56:26.533Z,1.73
2018-12-31T19:58:55.161Z,1.50
2018-12-31T20:01:23.263Z,1.20
2018-12-31T20:03:51.376Z,0.83
2018-12-31T20:06:19.880Z,0.97
2018-12-31T20:08:48.050Z,0.73
2018-12-31T20:11:16.221Z,1.00
2018-12-31T20:13:44.365Z,0.90
2018-12-31T20:16:12.525Z,0.70
2018-12-31T20:18:40.660Z,0.90
2018-12-31T20:21:08.737Z,0.70
2018-12-31T20:23:36.886Z,0.70
2018-12-31T20:26:06.076Z,0.77
2018-12-31T20:28:34.217Z,0.70
2018-12-31T20:31:02.471Z,0.80
2018-12-31T20:33:30.644Z,0.70
2018-12-31T20:35:58.829Z,0.80
2018-12-31T20:38:26.981Z,0.70
2018-12-31T20:40:55.360Z,0.63
2018-12-31T20:43:23.615Z,0.57
2018-12-31T20:45:51.705Z,0.60
2018-12-31T20:48:19.864Z,0.80
2018-12-31T20:50:48.388Z,1.33
2018-12-31T20:53:16.545Z,1.40
2018-12-31T20:55:45.029Z,1.00
2018-12-31T20:58:13.190Z,1.30
2018-12-31T21:00:41.277Z,1.43
2018-12-31T21:03:09.445Z,1.60
2018-12-31T21:05:37.513Z,1.97
2018-12-31T21:08:05.868Z,1.80
2018-12-31T21:10:34.895Z,1.80
2018-12-31T21:13:03.260Z,1.70
2018-12-31T21:15:31.347Z,1.80
2018-12-31T21:17:59.481Z,1.77
2018-12-31T21:20:27.560Z,4.27
2018-12-31T21:22:56.097Z,3.37
2018-12-31T21:25:24.645Z,2.60
2018-12-31T21:27:53.215Z,2.37
2018-12-31T21:30:21.316Z,2.33
2018-12-31T21:32:49.473Z,7.90
2018-12-31T21:35:17.693Z,13.03
2018-12-31T21:37:45.833Z,4.43
2018-12-31T21:40:13.923Z,2.70
2018-12-31T21:42:42.552Z,4.77
2018-12-31T21:45:10.704Z,3.40
2018-12-31T21:47:38.873Z,3.10
2018-12-31T21:50:07.218Z,3.07
2018-12-31T21:52:35.452Z,1.50
2018-12-31T21:55:03.985Z,1.10
2018-12-31T21:57:32.093Z,0.90
2018-12-31T22:00:00.328Z,0.70
2018-12-31T22:02:28.818Z,0.60
2018-12-31T22:04:57.336Z,0.70
2018-12-31T22:07:25.853Z,0.57
2018-12-31T22:09:53.974Z,0.80
2018-12-31T22:12:22.073Z,0.70
2018-12-31T22:15:11.504Z,0.70
2018-12-31T22:17:42.674Z,0.63
2018-12-31T22:20:11.021Z,0.70
2018-12-31T22:22:39.361Z,0.50
2018-12-31T22:25:07.879Z,0.60
2018-12-31T22:27:37.162Z,0.97
2018-12-31T22:30:07.399Z,0.93
2018-12-31T22:32:57.069Z,2.10
2018-12-31T22:35:25.166Z,2.97
2018-12-31T22:37:53.277Z,3.13
2018-12-31T22:40:21.413Z,3.97
2018-12-31T22:42:49.525Z,2.70
2018-12-31T22:45:17.685Z,2.23
2018-12-31T22:47:45.773Z,3.00
2018-12-31T22:50:14.405Z,2.00
2018-12-31T22:52:42.533Z,1.90
2018-12-31T22:55:10.815Z,8.87
2018-12-31T22:57:38.901Z,2.03
2018-12-31T23:00:08.917Z,3.47
2018-12-31T23:02:37.779Z,6.90
2018-12-31T23:05:07.801Z,2.17
2018-12-31T23:07:35.897Z,5.30
2018-12-31T23:10:04.503Z,4.10
2018-12-31T23:12:32.568Z,2.63
2018-12-31T23:15:01.325Z,1.37
2018-12-31T23:17:29.447Z,0.77
2018-12-31T23:19:57.643Z,0.77
2018-12-31T23:22:25.714Z,0.50
2018-12-31T23:24:53.841Z,0.60
2018-12-31T23:27:21.929Z,0.40
2018-12-31T23:29:50.263Z,0.50
2018-12-31T23:32:18.498Z,0.60
2018-12-31T23:34:46.648Z,0.50
2018-12-31T23:37:14.731Z,0.50
2018-12-31T23:39:42.872Z,0.60
2018-12-31T23:42:10.958Z,0.50
2018-12-31T23:44:39.204Z,0.50
2018-12-31T23:47:07.300Z,0.57
2018-12-31T23:49:35.818Z,0.60
2018-12-31T23:52:04.061Z,0.67
2018-12-31T23:54:32.196Z,0.70
2018-12-31T23:57:00.270Z,0.70
2018-12-31T23:59:28.394Z,1.00
